sensor_id;sensor_type;location;lat;lon;timestamp;temperature;humidity
8475;DHT22;4274;52.012;8.448;2022-10-16T00:01:09;12.00;99.90
8475;DHT22;4274;52.012;8.448;2022-10-16T00:03:37;12.00;99.90
8475;DHT22;4274;52.012;8.448;2022-10-16T00:06:03;12.00;99.90
8475;DHT22;4274;52.012;8.448;2022-10-16T00:08:30;12.00;99.90
8475;DHT22;4274;52.012;8.448;2022-10-16T00:11:04;12.00;99.90
8475;DHT22;4274;52.012;8.448;2022-10-16T00:13:32;11.90;99.90
8475;DHT22;4274;52.012;8.448;2022-10-16T00:15:58;11.90;99.90
8475;DHT22;4274;52.012;8.448;2022-10-16T00:18:25;11.90;99.90
8475;DHT22;4274;52.012;8.448;2022-10-16T00:20:51;11.90;99.90
8475;DHT22;4274;52.012;8.448;2022-10-16T00:23:17;11.80;99.90
8475;DHT22;4274;52.012;8.448;2022-10-16T00:25:42;11.90;99.90
8475;DHT22;4274;52.012;8.448;2022-10-16T00:28:08;11.90;99.90
8475;DHT22;4274;52.012;8.448;2022-10-16T00:30:37;11.90;99.90
8475;DHT22;4274;52.012;8.448;2022-10-16T00:33:02;11.80;99.90
8475;DHT22;4274;52.012;8.448;2022-10-16T00:35:28;11.80;99.90
8475;DHT22;4274;52.012;8.448;2022-10-16T00:37:54;11.70;99.90
8475;DHT22;4274;52.012;8.448;2022-10-16T00:40:20;11.70;99.90
8475;DHT22;4274;52.012;8.448;2022-10-16T00:42:45;11.70;99.90
8475;DHT22;4274;52.012;8.448;2022-10-16T00:45:11;11.70;99.90
8475;DHT22;4274;52.012;8.448;2022-10-16T00:47:45;11.70;99.90
8475;DHT22;4274;52.012;8.448;2022-10-16T00:52:50;11.70;99.90
8475;DHT22;4274;52.012;8.448;2022-10-16T00:55:16;11.60;99.90
8475;DHT22;4274;52.012;8.448;2022-10-16T00:57:43;11.60;99.90
8475;DHT22;4274;52.012;8.448;2022-10-16T01:00:12;11.50;99.90
8475;DHT22;4274;52.012;8.448;2022-10-16T01:02:38;11.50;99.90
8475;DHT22;4274;52.012;8.448;2022-10-16T01:05:05;11.50;99.90
8475;DHT22;4274;52.012;8.448;2022-10-16T01:10:38;11.50;99.90
8475;DHT22;4274;52.012;8.448;2022-10-16T01:13:08;11.50;99.90
8475;DHT22;4274;52.012;8.448;2022-10-16T01:21:31;11.40;99.90
8475;DHT22;4274;52.012;8.448;2022-10-16T01:29:25;11.30;99.90
8475;DHT22;4274;52.012;8.448;2022-10-16T01:31:57;11.30;99.90
8475;DHT22;4274;52.012;8.448;2022-10-16T01:34:46;11.30;99.90
8475;DHT22;4274;52.012;8.448;2022-10-16T01:37:20;11.40;99.90
8475;DHT22;4274;52.012;8.448;2022-10-16T01:39:47;11.40;99.90
8475;DHT22;4274;52.012;8.448;2022-10-16T01:42:21;11.40;99.90
8475;DHT22;4274;52.012;8.448;2022-10-16T01:44:51;11.40;99.90
8475;DHT22;4274;52.012;8.448;2022-10-16T01:47:19;11.40;99.90
8475;DHT22;4274;52.012;8.448;2022-10-16T01:49:46;11.40;99.90
8475;DHT22;4274;52.012;8.448;2022-10-16T01:52:15;11.40;99.90
8475;DHT22;4274;52.012;8.448;2022-10-16T01:54:44;11.40;99.90
8475;DHT22;4274;52.012;8.448;2022-10-16T01:57:12;11.40;99.90
8475;DHT22;4274;52.012;8.448;2022-10-16T01:59:42;11.30;99.90
8475;DHT22;4274;52.012;8.448;2022-10-16T02:02:10;11.30;99.90
8475;DHT22;4274;52.012;8.448;2022-10-16T02:04:42;11.30;99.90
8475;DHT22;4274;52.012;8.448;2022-10-16T02:07:08;11.40;99.90
8475;DHT22;4274;52.012;8.448;2022-10-16T02:09:35;11.40;99.90
8475;DHT22;4274;52.012;8.448;2022-10-16T02:12:06;11.40;99.90
8475;DHT22;4274;52.012;8.448;2022-10-16T02:14:34;11.50;99.90
8475;DHT22;4274;52.012;8.448;2022-10-16T02:17:14;11.40;99.90
8475;DHT22;4274;52.012;8.448;2022-10-16T02:19:40;11.50;99.90
8475;DHT22;4274;52.012;8.448;2022-10-16T02:22:09;11.50;99.90
8475;DHT22;4274;52.012;8.448;2022-10-16T02:24:51;11.50;99.90
8475;DHT22;4274;52.012;8.448;2022-10-16T02:30:09;11.40;99.90
8475;DHT22;4274;52.012;8.448;2022-10-16T02:32:39;11.40;99.90
8475;DHT22;4274;52.012;8.448;2022-10-16T02:35:07;11.40;99.90
8475;DHT22;4274;52.012;8.448;2022-10-16T02:37:34;11.40;99.90
8475;DHT22;4274;52.012;8.448;2022-10-16T02:40:00;11.40;99.90
8475;DHT22;4274;52.012;8.448;2022-10-16T02:42:37;11.40;99.90
8475;DHT22;4274;52.012;8.448;2022-10-16T02:45:04;11.40;99.90
8475;DHT22;4274;52.012;8.448;2022-10-16T02:47:30;11.40;99.90
8475;DHT22;4274;52.012;8.448;2022-10-16T02:49:56;11.40;99.90
8475;DHT22;4274;52.012;8.448;2022-10-16T02:52:21;11.30;99.90
8475;DHT22;4274;52.012;8.448;2022-10-16T02:54:47;11.30;99.90
8475;DHT22;4274;52.012;8.448;2022-10-16T02:57:13;11.30;99.90
8475;DHT22;4274;52.012;8.448;2022-10-16T02:59:38;11.30;99.90
8475;DHT22;4274;52.012;8.448;2022-10-16T03:02:04;11.30;99.90
8475;DHT22;4274;52.012;8.448;2022-10-16T03:04:29;11.30;99.90
8475;DHT22;4274;52.012;8.448;2022-10-16T03:06:55;11.30;99.90
8475;DHT22;4274;52.012;8.448;2022-10-16T03:09:20;11.30;99.90
8475;DHT22;4274;52.012;8.448;2022-10-16T03:11:46;11.40;99.90
8475;DHT22;4274;52.012;8.448;2022-10-16T03:14:12;11.40;99.90
8475;DHT22;4274;52.012;8.448;2022-10-16T03:16:37;11.40;99.90
8475;DHT22;4274;52.012;8.448;2022-10-16T03:19:03;11.40;99.90
8475;DHT22;4274;52.012;8.448;2022-10-16T03:21:28;11.40;99.90
8475;DHT22;4274;52.012;8.448;2022-10-16T03:23:54;11.40;99.90
8475;DHT22;4274;52.012;8.448;2022-10-16T03:26:20;11.40;99.90
8475;DHT22;4274;52.012;8.448;2022-10-16T03:28:46;11.40;99.90
8475;DHT22;4274;52.012;8.448;2022-10-16T03:31:12;11.40;99.90
8475;DHT22;4274;52.012;8.448;2022-10-16T03:33:38;11.40;99.90
8475;DHT22;4274;52.012;8.448;2022-10-16T03:36:03;11.40;99.90
8475;DHT22;4274;52.012;8.448;2022-10-16T03:38:29;11.40;99.90
8475;DHT22;4274;52.012;8.448;2022-10-16T03:40:55;11.40;99.90
8475;DHT22;4274;52.012;8.448;2022-10-16T03:43:20;11.40;99.90
8475;DHT22;4274;52.012;8.448;2022-10-16T03:45:46;11.30;99.90
8475;DHT22;4274;52.012;8.448;2022-10-16T03:48:11;11.30;99.90
8475;DHT22;4274;52.012;8.448;2022-10-16T03:50:37;11.30;99.90
8475;DHT22;4274;52.012;8.448;2022-10-16T03:53:03;11.30;99.90
8475;DHT22;4274;52.012;8.448;2022-10-16T03:55:28;11.30;99.90
8475;DHT22;4274;52.012;8.448;2022-10-16T03:57:54;11.30;99.90
8475;DHT22;4274;52.012;8.448;2022-10-16T04:00:19;11.30;99.90
8475;DHT22;4274;52.012;8.448;2022-10-16T04:02:45;11.30;99.90
8475;DHT22;4274;52.012;8.448;2022-10-16T04:05:11;11.40;99.90
8475;DHT22;4274;52.012;8.448;2022-10-16T04:07:36;11.40;99.90
8475;DHT22;4274;52.012;8.448;2022-10-16T04:10:03;11.40;99.90
8475;DHT22;4274;52.012;8.448;2022-10-16T04:12:29;11.50;99.90
8475;DHT22;4274;52.012;8.448;2022-10-16T04:14:55;11.50;99.90
8475;DHT22;4274;52.012;8.448;2022-10-16T04:17:20;11.50;99.90
8475;DHT22;4274;52.012;8.448;2022-10-16T04:19:46;11.60;99.90
8475;DHT22;4274;52.012;8.448;2022-10-16T04:22:11;11.60;99.90
8475;DHT22;4274;52.012;8.448;2022-10-16T04:24:37;11.60;99.90
8475;DHT22;4274;52.012;8.448;2022-10-16T04:27:03;11.60;99.90
8475;DHT22;4274;52.012;8.448;2022-10-16T04:29:28;11.60;99.90
8475;DHT22;4274;52.012;8.448;2022-10-16T04:31:54;11.70;99.90
8475;DHT22;4274;52.012;8.448;2022-10-16T04:34:20;11.70;99.90
8475;DHT22;4274;52.012;8.448;2022-10-16T04:36:47;11.70;99.90
8475;DHT22;4274;52.012;8.448;2022-10-16T04:39:13;11.70;99.90
8475;DHT22;4274;52.012;8.448;2022-10-16T04:41:39;11.80;99.90
8475;DHT22;4274;52.012;8.448;2022-10-16T04:44:04;11.80;99.90
8475;DHT22;4274;52.012;8.448;2022-10-16T04:46:30;11.80;99.90
8475;DHT22;4274;52.012;8.448;2022-10-16T04:48:55;11.90;99.90
8475;DHT22;4274;52.012;8.448;2022-10-16T04:51:21;11.90;99.90
8475;DHT22;4274;52.012;8.448;2022-10-16T04:53:46;11.90;99.90
8475;DHT22;4274;52.012;8.448;2022-10-16T04:56:12;11.90;99.90
8475;DHT22;4274;52.012;8.448;2022-10-16T04:58:38;11.90;99.90
8475;DHT22;4274;52.012;8.448;2022-10-16T05:01:03;12.00;99.90
8475;DHT22;4274;52.012;8.448;2022-10-16T05:03:29;12.00;99.90
8475;DHT22;4274;52.012;8.448;2022-10-16T05:05:54;12.00;99.90
8475;DHT22;4274;52.012;8.448;2022-10-16T05:08:20;12.00;99.90
8475;DHT22;4274;52.012;8.448;2022-10-16T05:10:46;12.00;99.90
8475;DHT22;4274;52.012;8.448;2022-10-16T05:13:12;12.10;99.90
8475;DHT22;4274;52.012;8.448;2022-10-16T05:15:37;12.10;99.90
8475;DHT22;4274;52.012;8.448;2022-10-16T05:18:03;12.00;99.90
8475;DHT22;4274;52.012;8.448;2022-10-16T05:20:29;12.10;99.90
8475;DHT22;4274;52.012;8.448;2022-10-16T05:22:54;12.00;99.90
8475;DHT22;4274;52.012;8.448;2022-10-16T05:25:20;12.00;99.90
8475;DHT22;4274;52.012;8.448;2022-10-16T05:27:49;11.90;99.90
8475;DHT22;4274;52.012;8.448;2022-10-16T05:30:15;11.90;99.90
8475;DHT22;4274;52.012;8.448;2022-10-16T05:32:41;11.90;99.90
8475;DHT22;4274;52.012;8.448;2022-10-16T05:35:07;11.90;99.90
8475;DHT22;4274;52.012;8.448;2022-10-16T05:37:33;11.80;99.90
8475;DHT22;4274;52.012;8.448;2022-10-16T05:39:58;11.80;99.90
8475;DHT22;4274;52.012;8.448;2022-10-16T05:42:24;11.70;99.90
8475;DHT22;4274;52.012;8.448;2022-10-16T05:44:49;11.70;99.90
8475;DHT22;4274;52.012;8.448;2022-10-16T05:47:15;11.70;99.90
8475;DHT22;4274;52.012;8.448;2022-10-16T05:49:40;11.80;99.90
8475;DHT22;4274;52.012;8.448;2022-10-16T05:52:06;11.70;99.90
8475;DHT22;4274;52.012;8.448;2022-10-16T05:54:31;11.60;99.90
8475;DHT22;4274;52.012;8.448;2022-10-16T05:56:57;11.60;99.90
8475;DHT22;4274;52.012;8.448;2022-10-16T05:59:23;11.60;99.90
8475;DHT22;4274;52.012;8.448;2022-10-16T06:01:48;11.60;99.90
8475;DHT22;4274;52.012;8.448;2022-10-16T06:04:14;11.60;99.90
8475;DHT22;4274;52.012;8.448;2022-10-16T06:06:40;11.60;99.90
8475;DHT22;4274;52.012;8.448;2022-10-16T06:09:06;11.60;99.90
8475;DHT22;4274;52.012;8.448;2022-10-16T06:11:32;11.60;99.90
8475;DHT22;4274;52.012;8.448;2022-10-16T06:14:00;11.60;99.90
8475;DHT22;4274;52.012;8.448;2022-10-16T06:16:28;11.60;99.90
8475;DHT22;4274;52.012;8.448;2022-10-16T06:18:55;11.70;99.90
8475;DHT22;4274;52.012;8.448;2022-10-16T06:21:28;11.70;99.90
8475;DHT22;4274;52.012;8.448;2022-10-16T06:23:55;11.70;99.90
8475;DHT22;4274;52.012;8.448;2022-10-16T06:26:24;11.70;99.90
8475;DHT22;4274;52.012;8.448;2022-10-16T06:28:49;11.80;99.90
8475;DHT22;4274;52.012;8.448;2022-10-16T06:31:16;11.90;99.90
8475;DHT22;4274;52.012;8.448;2022-10-16T06:33:41;11.90;99.90
8475;DHT22;4274;52.012;8.448;2022-10-16T06:36:13;12.00;99.90
8475;DHT22;4274;52.012;8.448;2022-10-16T06:38:39;12.10;99.90
8475;DHT22;4274;52.012;8.448;2022-10-16T06:41:07;12.20;99.90
8475;DHT22;4274;52.012;8.448;2022-10-16T06:43:33;12.20;99.90
8475;DHT22;4274;52.012;8.448;2022-10-16T06:46:04;12.30;99.90
8475;DHT22;4274;52.012;8.448;2022-10-16T06:48:30;12.30;99.90
8475;DHT22;4274;52.012;8.448;2022-10-16T06:51:04;12.30;99.90
8475;DHT22;4274;52.012;8.448;2022-10-16T06:53:31;12.30;99.90
8475;DHT22;4274;52.012;8.448;2022-10-16T06:55:57;12.30;99.90
8475;DHT22;4274;52.012;8.448;2022-10-16T06:58:23;12.30;99.90
8475;DHT22;4274;52.012;8.448;2022-10-16T07:00:54;12.30;99.90
8475;DHT22;4274;52.012;8.448;2022-10-16T07:03:20;12.40;99.90
8475;DHT22;4274;52.012;8.448;2022-10-16T07:05:46;12.40;99.90
8475;DHT22;4274;52.012;8.448;2022-10-16T07:08:11;12.50;99.90
8475;DHT22;4274;52.012;8.448;2022-10-16T07:10:37;12.50;99.90
8475;DHT22;4274;52.012;8.448;2022-10-16T07:13:03;12.60;99.90
8475;DHT22;4274;52.012;8.448;2022-10-16T07:15:28;12.60;99.90
8475;DHT22;4274;52.012;8.448;2022-10-16T07:17:54;12.70;99.90
8475;DHT22;4274;52.012;8.448;2022-10-16T07:20:20;12.80;99.90
8475;DHT22;4274;52.012;8.448;2022-10-16T07:22:46;12.90;99.90
8475;DHT22;4274;52.012;8.448;2022-10-16T07:25:11;12.90;99.90
8475;DHT22;4274;52.012;8.448;2022-10-16T07:27:37;13.10;99.90
8475;DHT22;4274;52.012;8.448;2022-10-16T07:30:04;13.20;99.90
8475;DHT22;4274;52.012;8.448;2022-10-16T07:32:30;13.30;99.90
8475;DHT22;4274;52.012;8.448;2022-10-16T07:34:56;13.40;99.90
8475;DHT22;4274;52.012;8.448;2022-10-16T07:37:22;13.60;99.90
8475;DHT22;4274;52.012;8.448;2022-10-16T07:39:47;13.70;99.90
8475;DHT22;4274;52.012;8.448;2022-10-16T07:42:13;13.90;99.90
8475;DHT22;4274;52.012;8.448;2022-10-16T07:44:38;14.00;99.90
8475;DHT22;4274;52.012;8.448;2022-10-16T07:47:05;14.10;99.90
8475;DHT22;4274;52.012;8.448;2022-10-16T07:49:31;14.10;99.90
8475;DHT22;4274;52.012;8.448;2022-10-16T07:51:56;14.10;99.90
8475;DHT22;4274;52.012;8.448;2022-10-16T07:54:22;14.10;99.90
8475;DHT22;4274;52.012;8.448;2022-10-16T07:56:47;14.10;99.90
8475;DHT22;4274;52.012;8.448;2022-10-16T07:59:13;14.00;99.90
8475;DHT22;4274;52.012;8.448;2022-10-16T08:01:38;13.90;99.90
8475;DHT22;4274;52.012;8.448;2022-10-16T08:04:05;13.90;99.90
8475;DHT22;4274;52.012;8.448;2022-10-16T08:06:36;13.90;99.90
8475;DHT22;4274;52.012;8.448;2022-10-16T08:09:02;14.00;99.90
8475;DHT22;4274;52.012;8.448;2022-10-16T08:11:27;14.00;99.90
8475;DHT22;4274;52.012;8.448;2022-10-16T08:13:53;14.10;99.90
8475;DHT22;4274;52.012;8.448;2022-10-16T08:16:19;14.20;99.90
8475;DHT22;4274;52.012;8.448;2022-10-16T08:18:45;14.30;99.90
8475;DHT22;4274;52.012;8.448;2022-10-16T08:21:16;14.60;99.90
8475;DHT22;4274;52.012;8.448;2022-10-16T08:23:42;14.70;99.90
8475;DHT22;4274;52.012;8.448;2022-10-16T08:26:10;14.80;99.90
8475;DHT22;4274;52.012;8.448;2022-10-16T08:51:27;15.40;99.90
8475;DHT22;4274;52.012;8.448;2022-10-16T08:56:22;15.80;99.90
8475;DHT22;4274;52.012;8.448;2022-10-16T08:58:49;16.00;99.90
8475;DHT22;4274;52.012;8.448;2022-10-16T09:01:16;16.10;99.90
8475;DHT22;4274;52.012;8.448;2022-10-16T09:03:51;16.20;99.90
8475;DHT22;4274;52.012;8.448;2022-10-16T09:14:45;16.50;99.90
8475;DHT22;4274;52.012;8.448;2022-10-16T09:22:58;17.10;99.90
8475;DHT22;4274;52.012;8.448;2022-10-16T09:25:26;17.20;99.90
8475;DHT22;4274;52.012;8.448;2022-10-16T09:27:53;17.20;99.90
8475;DHT22;4274;52.012;8.448;2022-10-16T09:30:21;17.20;99.90
8475;DHT22;4274;52.012;8.448;2022-10-16T09:32:49;17.30;99.90
8475;DHT22;4274;52.012;8.448;2022-10-16T09:35:19;17.40;99.90
8475;DHT22;4274;52.012;8.448;2022-10-16T09:37:48;17.40;99.90
8475;DHT22;4274;52.012;8.448;2022-10-16T09:40:26;17.40;99.90
8475;DHT22;4274;52.012;8.448;2022-10-16T09:43:01;17.30;99.90
8475;DHT22;4274;52.012;8.448;2022-10-16T09:45:27;17.20;99.90
8475;DHT22;4274;52.012;8.448;2022-10-16T09:47:53;17.00;99.90
8475;DHT22;4274;52.012;8.448;2022-10-16T09:50:26;16.90;99.90
8475;DHT22;4274;52.012;8.448;2022-10-16T09:53:15;16.90;99.90
8475;DHT22;4274;52.012;8.448;2022-10-16T09:55:51;17.10;99.90
8475;DHT22;4274;52.012;8.448;2022-10-16T09:58:17;17.40;99.90
8475;DHT22;4274;52.012;8.448;2022-10-16T10:00:49;17.60;99.90
8475;DHT22;4274;52.012;8.448;2022-10-16T10:03:38;17.70;99.90
8475;DHT22;4274;52.012;8.448;2022-10-16T10:06:15;17.60;99.90
8475;DHT22;4274;52.012;8.448;2022-10-16T10:08:55;17.70;99.90
8475;DHT22;4274;52.012;8.448;2022-10-16T10:11:42;17.90;99.90
8475;DHT22;4274;52.012;8.448;2022-10-16T10:14:20;18.00;99.90
8475;DHT22;4274;52.012;8.448;2022-10-16T10:16:47;18.20;99.90
8475;DHT22;4274;52.012;8.448;2022-10-16T10:19:18;18.40;99.90
8475;DHT22;4274;52.012;8.448;2022-10-16T10:21:46;18.50;99.90
8475;DHT22;4274;52.012;8.448;2022-10-16T10:24:13;18.50;99.90
8475;DHT22;4274;52.012;8.448;2022-10-16T10:26:45;18.50;99.90
8475;DHT22;4274;52.012;8.448;2022-10-16T10:29:37;18.70;99.90
8475;DHT22;4274;52.012;8.448;2022-10-16T10:32:25;18.90;99.90
8475;DHT22;4274;52.012;8.448;2022-10-16T10:34:58;19.20;99.90
8475;DHT22;4274;52.012;8.448;2022-10-16T10:37:31;19.50;99.90
8475;DHT22;4274;52.012;8.448;2022-10-16T10:40:06;19.80;99.90
8475;DHT22;4274;52.012;8.448;2022-10-16T10:42:47;20.00;99.90
8475;DHT22;4274;52.012;8.448;2022-10-16T10:50:20;21.90;99.90
8475;DHT22;4274;52.012;8.448;2022-10-16T10:58:04;25.10;99.90
8475;DHT22;4274;52.012;8.448;2022-10-16T11:14:22;23.50;99.90
8475;DHT22;4274;52.012;8.448;2022-10-16T11:17:19;23.10;99.90
8475;DHT22;4274;52.012;8.448;2022-10-16T11:19:57;21.80;99.90
8475;DHT22;4274;52.012;8.448;2022-10-16T11:22:32;21.40;99.90
8475;DHT22;4274;52.012;8.448;2022-10-16T11:25:02;20.70;99.90
8475;DHT22;4274;52.012;8.448;2022-10-16T11:27:39;20.50;99.90
8475;DHT22;4274;52.012;8.448;2022-10-16T11:30:14;20.80;99.90
8475;DHT22;4274;52.012;8.448;2022-10-16T11:38:30;24.60;99.90
8475;DHT22;4274;52.012;8.448;2022-10-16T11:41:20;25.70;99.90
8475;DHT22;4274;52.012;8.448;2022-10-16T11:44:03;26.80;99.90
8475;DHT22;4274;52.012;8.448;2022-10-16T11:46:34;27.40;99.90
8475;DHT22;4274;52.012;8.448;2022-10-16T11:49:08;28.00;99.90
8475;DHT22;4274;52.012;8.448;2022-10-16T11:55:13;28.10;99.90
8475;DHT22;4274;52.012;8.448;2022-10-16T11:57:44;28.30;99.30
8475;DHT22;4274;52.012;8.448;2022-10-16T12:00:21;28.10;99.90
8475;DHT22;4274;52.012;8.448;2022-10-16T12:10:28;24.50;99.90
8475;DHT22;4274;52.012;8.448;2022-10-16T12:12:56;23.50;99.90
8475;DHT22;4274;52.012;8.448;2022-10-16T12:15:31;23.00;99.90
8475;DHT22;4274;52.012;8.448;2022-10-16T12:17:57;22.70;99.90
8475;DHT22;4274;52.012;8.448;2022-10-16T12:20:28;22.50;99.90
8475;DHT22;4274;52.012;8.448;2022-10-16T12:28:02;21.50;99.90
8475;DHT22;4274;52.012;8.448;2022-10-16T12:30:31;21.20;99.90
8475;DHT22;4274;52.012;8.448;2022-10-16T12:33:02;21.00;99.90
8475;DHT22;4274;52.012;8.448;2022-10-16T12:35:32;20.30;99.90
8475;DHT22;4274;52.012;8.448;2022-10-16T12:38:51;20.30;99.90
8475;DHT22;4274;52.012;8.448;2022-10-16T12:41:03;20.60;99.90
8475;DHT22;4274;52.012;8.448;2022-10-16T12:48:42;22.70;99.90
8475;DHT22;4274;52.012;8.448;2022-10-16T12:51:32;23.30;99.90
8475;DHT22;4274;52.012;8.448;2022-10-16T12:59:09;22.30;99.90
8475;DHT22;4274;52.012;8.448;2022-10-16T13:05:00;22.70;99.90
8475;DHT22;4274;52.012;8.448;2022-10-16T13:07:41;22.80;99.90
8475;DHT22;4274;52.012;8.448;2022-10-16T13:10:16;23.10;99.90
8475;DHT22;4274;52.012;8.448;2022-10-16T13:12:54;23.60;99.90
8475;DHT22;4274;52.012;8.448;2022-10-16T13:18:19;24.60;99.90
8475;DHT22;4274;52.012;8.448;2022-10-16T13:21:35;24.30;99.90
8475;DHT22;4274;52.012;8.448;2022-10-16T13:26:49;24.20;99.90
8475;DHT22;4274;52.012;8.448;2022-10-16T13:29:19;24.60;99.90
8475;DHT22;4274;52.012;8.448;2022-10-16T13:31:45;24.80;99.90
8475;DHT22;4274;52.012;8.448;2022-10-16T13:34:18;25.00;99.90
8475;DHT22;4274;52.012;8.448;2022-10-16T13:36:50;25.10;99.90
8475;DHT22;4274;52.012;8.448;2022-10-16T13:41:44;25.20;99.90
8475;DHT22;4274;52.012;8.448;2022-10-16T13:44:17;24.90;99.90
8475;DHT22;4274;52.012;8.448;2022-10-16T13:46:43;24.50;99.90
8475;DHT22;4274;52.012;8.448;2022-10-16T13:49:15;24.40;99.90
8475;DHT22;4274;52.012;8.448;2022-10-16T13:51:47;24.40;99.90
8475;DHT22;4274;52.012;8.448;2022-10-16T13:54:18;24.20;99.90
8475;DHT22;4274;52.012;8.448;2022-10-16T13:56:44;23.90;99.90
8475;DHT22;4274;52.012;8.448;2022-10-16T13:59:35;23.60;99.90
8475;DHT22;4274;52.012;8.448;2022-10-16T14:02:11;23.30;99.90
8475;DHT22;4274;52.012;8.448;2022-10-16T14:04:39;23.20;99.90
8475;DHT22;4274;52.012;8.448;2022-10-16T14:07:05;23.00;99.90
8475;DHT22;4274;52.012;8.448;2022-10-16T14:09:31;22.70;99.90
8475;DHT22;4274;52.012;8.448;2022-10-16T14:12:10;22.20;99.90
8475;DHT22;4274;52.012;8.448;2022-10-16T14:15:02;21.60;99.90
8475;DHT22;4274;52.012;8.448;2022-10-16T14:17:29;20.90;99.90
8475;DHT22;4274;52.012;8.448;2022-10-16T14:19:57;20.50;99.90
8475;DHT22;4274;52.012;8.448;2022-10-16T14:22:40;20.10;99.90
8475;DHT22;4274;52.012;8.448;2022-10-16T14:25:23;19.60;99.90
8475;DHT22;4274;52.012;8.448;2022-10-16T14:28:04;19.20;99.90
8475;DHT22;4274;52.012;8.448;2022-10-16T14:30:33;19.00;99.90
8475;DHT22;4274;52.012;8.448;2022-10-16T14:33:21;18.90;99.90
8475;DHT22;4274;52.012;8.448;2022-10-16T14:38:36;18.70;99.90
8475;DHT22;4274;52.012;8.448;2022-10-16T14:41:03;18.60;99.90
8475;DHT22;4274;52.012;8.448;2022-10-16T14:43:40;18.50;99.90
8475;DHT22;4274;52.012;8.448;2022-10-16T14:46:13;18.50;99.90
8475;DHT22;4274;52.012;8.448;2022-10-16T14:48:44;18.40;99.90
8475;DHT22;4274;52.012;8.448;2022-10-16T14:51:15;18.30;99.90
8475;DHT22;4274;52.012;8.448;2022-10-16T14:53:41;18.10;99.90
8475;DHT22;4274;52.012;8.448;2022-10-16T14:56:08;18.00;99.90
8475;DHT22;4274;52.012;8.448;2022-10-16T14:58:39;17.90;99.90
8475;DHT22;4274;52.012;8.448;2022-10-16T15:01:05;17.80;99.90
8475;DHT22;4274;52.012;8.448;2022-10-16T15:03:33;17.70;99.90
8475;DHT22;4274;52.012;8.448;2022-10-16T15:05:59;17.70;99.90
8475;DHT22;4274;52.012;8.448;2022-10-16T15:08:24;17.80;99.90
8475;DHT22;4274;52.012;8.448;2022-10-16T15:10:51;17.90;99.90
8475;DHT22;4274;52.012;8.448;2022-10-16T15:13:16;17.90;99.90
8475;DHT22;4274;52.012;8.448;2022-10-16T15:15:44;18.00;99.90
8475;DHT22;4274;52.012;8.448;2022-10-16T15:18:10;18.00;99.90
8475;DHT22;4274;52.012;8.448;2022-10-16T15:20:38;17.90;99.90
8475;DHT22;4274;52.012;8.448;2022-10-16T15:23:10;17.80;99.90
8475;DHT22;4274;52.012;8.448;2022-10-16T15:28:05;17.60;99.90
8475;DHT22;4274;52.012;8.448;2022-10-16T15:30:32;17.60;99.90
8475;DHT22;4274;52.012;8.448;2022-10-16T15:32:58;17.50;99.90
8475;DHT22;4274;52.012;8.448;2022-10-16T15:35:23;17.40;99.90
8475;DHT22;4274;52.012;8.448;2022-10-16T15:37:49;17.30;99.90
8475;DHT22;4274;52.012;8.448;2022-10-16T15:40:16;17.20;99.90
8475;DHT22;4274;52.012;8.448;2022-10-16T15:42:41;17.00;99.90
8475;DHT22;4274;52.012;8.448;2022-10-16T15:45:09;16.90;99.90
8475;DHT22;4274;52.012;8.448;2022-10-16T15:47:34;16.70;99.90
8475;DHT22;4274;52.012;8.448;2022-10-16T15:50:00;16.60;99.90
8475;DHT22;4274;52.012;8.448;2022-10-16T15:52:25;16.50;99.90
8475;DHT22;4274;52.012;8.448;2022-10-16T15:54:51;16.40;99.90
8475;DHT22;4274;52.012;8.448;2022-10-16T15:57:17;16.30;99.90
8475;DHT22;4274;52.012;8.448;2022-10-16T15:59:42;16.20;99.90
8475;DHT22;4274;52.012;8.448;2022-10-16T16:02:09;16.20;99.90
8475;DHT22;4274;52.012;8.448;2022-10-16T16:04:34;16.10;99.90
8475;DHT22;4274;52.012;8.448;2022-10-16T16:07:00;16.00;99.90
8475;DHT22;4274;52.012;8.448;2022-10-16T16:09:29;16.00;99.90
8475;DHT22;4274;52.012;8.448;2022-10-16T16:11:54;15.90;99.90
8475;DHT22;4274;52.012;8.448;2022-10-16T16:14:20;15.90;99.90
8475;DHT22;4274;52.012;8.448;2022-10-16T16:16:46;15.80;99.90
8475;DHT22;4274;52.012;8.448;2022-10-16T16:19:11;15.70;99.90
8475;DHT22;4274;52.012;8.448;2022-10-16T16:21:38;15.70;99.90
8475;DHT22;4274;52.012;8.448;2022-10-16T16:24:04;15.60;99.90
8475;DHT22;4274;52.012;8.448;2022-10-16T16:26:33;15.60;99.90
8475;DHT22;4274;52.012;8.448;2022-10-16T16:29:02;15.60;99.90
8475;DHT22;4274;52.012;8.448;2022-10-16T16:31:29;15.50;99.90
8475;DHT22;4274;52.012;8.448;2022-10-16T16:33:56;15.50;99.90
8475;DHT22;4274;52.012;8.448;2022-10-16T16:36:22;15.40;99.90
8475;DHT22;4274;52.012;8.448;2022-10-16T16:38:48;15.40;99.90
8475;DHT22;4274;52.012;8.448;2022-10-16T16:41:16;15.40;99.90
8475;DHT22;4274;52.012;8.448;2022-10-16T16:43:42;15.40;99.90
8475;DHT22;4274;52.012;8.448;2022-10-16T16:46:08;15.30;99.90
8475;DHT22;4274;52.012;8.448;2022-10-16T16:48:34;15.30;99.90
8475;DHT22;4274;52.012;8.448;2022-10-16T16:51:08;15.20;99.90
8475;DHT22;4274;52.012;8.448;2022-10-16T16:53:35;15.20;99.90
8475;DHT22;4274;52.012;8.448;2022-10-16T16:56:03;15.20;99.90
8475;DHT22;4274;52.012;8.448;2022-10-16T16:58:29;15.10;99.90
8475;DHT22;4274;52.012;8.448;2022-10-16T17:00:54;15.10;99.90
8475;DHT22;4274;52.012;8.448;2022-10-16T17:03:20;15.10;99.90
8475;DHT22;4274;52.012;8.448;2022-10-16T17:06:06;15.10;99.90
8475;DHT22;4274;52.012;8.448;2022-10-16T17:08:33;15.00;99.90
8475;DHT22;4274;52.012;8.448;2022-10-16T17:10:59;15.00;99.90
8475;DHT22;4274;52.012;8.448;2022-10-16T17:13:27;15.00;99.90
8475;DHT22;4274;52.012;8.448;2022-10-16T17:15:53;14.90;99.90
8475;DHT22;4274;52.012;8.448;2022-10-16T17:18:20;14.90;99.90
8475;DHT22;4274;52.012;8.448;2022-10-16T17:20:47;14.90;99.90
8475;DHT22;4274;52.012;8.448;2022-10-16T17:23:13;14.90;99.90
8475;DHT22;4274;52.012;8.448;2022-10-16T17:25:39;14.80;99.90
8475;DHT22;4274;52.012;8.448;2022-10-16T17:28:05;14.80;99.90
8475;DHT22;4274;52.012;8.448;2022-10-16T17:30:34;14.70;99.90
8475;DHT22;4274;52.012;8.448;2022-10-16T17:33:01;14.60;99.90
8475;DHT22;4274;52.012;8.448;2022-10-16T17:35:27;14.50;99.90
8475;DHT22;4274;52.012;8.448;2022-10-16T17:37:53;14.50;99.90
8475;DHT22;4274;52.012;8.448;2022-10-16T17:40:19;14.50;99.90
8475;DHT22;4274;52.012;8.448;2022-10-16T17:42:45;14.40;99.90
8475;DHT22;4274;52.012;8.448;2022-10-16T17:45:12;14.40;99.90
8475;DHT22;4274;52.012;8.448;2022-10-16T17:47:38;14.30;99.90
8475;DHT22;4274;52.012;8.448;2022-10-16T17:50:06;14.30;99.90
8475;DHT22;4274;52.012;8.448;2022-10-16T17:52:32;14.30;99.90
8475;DHT22;4274;52.012;8.448;2022-10-16T17:54:58;14.30;99.90
8475;DHT22;4274;52.012;8.448;2022-10-16T17:57:24;14.40;99.90
8475;DHT22;4274;52.012;8.448;2022-10-16T17:59:49;14.30;99.90
8475;DHT22;4274;52.012;8.448;2022-10-16T18:02:15;14.30;99.90
8475;DHT22;4274;52.012;8.448;2022-10-16T18:04:42;14.20;99.90
8475;DHT22;4274;52.012;8.448;2022-10-16T18:07:08;14.20;99.90
8475;DHT22;4274;52.012;8.448;2022-10-16T18:09:34;14.10;99.90
8475;DHT22;4274;52.012;8.448;2022-10-16T18:12:03;14.10;99.90
8475;DHT22;4274;52.012;8.448;2022-10-16T18:14:30;14.00;99.90
8475;DHT22;4274;52.012;8.448;2022-10-16T18:16:56;14.00;99.90
8475;DHT22;4274;52.012;8.448;2022-10-16T18:19:23;14.00;99.90
8475;DHT22;4274;52.012;8.448;2022-10-16T18:21:48;14.00;99.90
8475;DHT22;4274;52.012;8.448;2022-10-16T18:24:15;14.00;99.90